Time;durP1;ratioP1;P1;durP2;ratioP2;P2;SDS_P1;SDS_P2;PMS_P1;PMS_P2;Temp;Humidity;BMP_temperature;BMP_pressure;BME280_temperature;BME280_humidity;BME280_pressure;Samples;Min_cycle;Max_cycle;Signal;HPM_P1;HPM_P2
2023/07/15 00:01:18;;;;;;;7.47;4.07;;;19.80;99.90;;;;;;6307865;22;20120;-87
2023/07/15 00:03:44;;;;;;;7.78;4.53;;;19.80;99.90;;;;;;6281681;22;20070;-88
2023/07/15 00:06:10;;;;;;;6.30;4.03;;;19.80;99.90;;;;;;6306157;22;20564;-87
2023/07/15 00:08:36;;;;;;;7.70;4.07;;;19.80;99.90;;;;;;6307464;22;20015;-87
2023/07/15 00:11:05;;;;;;;7.88;4.75;;;19.80;99.90;;;;;;6334048;22;20068;-87
2023/07/15 00:13:31;;;;;;;8.07;4.90;;;19.80;99.90;;;;;;6307374;22;20074;-87
2023/07/15 00:15:57;;;;;;;6.88;3.80;;;19.70;99.90;;;;;;6308466;22;20370;-87
2023/07/15 00:18:23;;;;;;;9.02;4.05;;;19.70;99.90;;;;;;6308628;22;20066;-87
2023/07/15 00:20:49;;;;;;;5.80;4.07;;;19.70;99.90;;;;;;6309475;22;20026;-87
2023/07/15 00:23:19;;;;;;;6.82;4.22;;;19.60;99.90;;;;;;6281838;22;20019;-87
2023/07/15 00:25:45;;;;;;;6.90;4.35;;;19.60;99.90;;;;;;6309318;22;20063;-87
2023/07/15 00:28:14;;;;;;;8.48;4.13;;;19.60;99.90;;;;;;6307972;22;20449;-87
2023/07/15 00:30:40;;;;;;;8.23;4.30;;;19.60;99.90;;;;;;6309637;22;20007;-87
2023/07/15 00:33:15;;;;;;;5.35;3.47;;;19.60;99.90;;;;;;6338242;22;20061;-87
2023/07/15 00:35:41;;;;;;;;;;;19.50;99.90;;;;;;6311621;22;20018;-87
2023/07/15 00:38:06;;;;;;;8.60;4.25;;;19.50;99.90;;;;;;6309717;22;19954;-87
2023/07/15 00:40:47;;;;;;;6.43;3.13;;;19.50;99.90;;;;;;6337775;22;20010;-87
2023/07/15 00:43:50;;;;;;;6.80;3.65;;;19.50;99.90;;;;;;6307349;22;20018;-87
2023/07/15 00:46:19;;;;;;;7.85;3.50;;;19.50;99.90;;;;;;6309433;22;20022;-87
2023/07/15 00:49:12;;;;;;;6.18;3.30;;;19.50;99.90;;;;;;6311214;22;20050;-87
2023/07/15 00:51:46;;;;;;;7.68;3.95;;;19.50;99.90;;;;;;6311665;22;20027;-87
2023/07/15 00:54:13;;;;;;;7.95;4.10;;;19.50;99.90;;;;;;6311069;22;20022;-87
2023/07/15 00:56:41;;;;;;;6.22;3.25;;;19.40;99.90;;;;;;6310797;22;20021;-87
2023/07/15 00:59:09;;;;;;;7.53;3.83;;;19.40;99.90;;;;;;6309453;22;20019;-87
2023/07/15 01:01:36;;;;;;;8.27;3.58;;;19.40;99.90;;;;;;6336350;22;20315;-86
2023/07/15 01:04:02;;;;;;;7.80;4.05;;;19.40;99.90;;;;;;6334531;22;20013;-87
2023/07/15 01:06:28;;;;;;;7.93;3.88;;;19.40;99.90;;;;;;6336504;22;20074;-87
2023/07/15 01:08:54;;;;;;;5.95;3.13;;;19.40;99.90;;;;;;6336874;22;20014;-87
2023/07/15 01:11:20;;;;;;;11.98;3.67;;;19.40;99.90;;;;;;6337066;22;20124;-87
2023/07/15 01:13:47;;;;;;;7.03;3.55;;;19.40;99.90;;;;;;6309958;22;20018;-87
2023/07/15 01:16:13;;;;;;;5.45;3.47;;;19.40;99.90;;;;;;6307770;22;20052;-86
2023/07/15 01:18:40;;;;;;;7.78;3.30;;;19.40;99.90;;;;;;6307435;22;20026;-87
2023/07/15 01:21:06;;;;;;;6.78;3.42;;;19.40;99.90;;;;;;6307556;22;20014;-87
2023/07/15 01:23:33;;;;;;;6.28;3.30;;;19.50;99.90;;;;;;6308571;22;20076;-86
2023/07/15 01:25:58;;;;;;;6.97;3.17;;;19.50;99.90;;;;;;6308738;22;20006;-87
2023/07/15 01:28:24;;;;;;;6.35;3.47;;;19.50;99.90;;;;;;6334593;22;20093;-87
2023/07/15 01:30:50;;;;;;;5.13;2.92;;;19.40;99.90;;;;;;6334005;22;20011;-86
2023/07/15 01:33:18;;;;;;;6.85;3.30;;;19.40;99.90;;;;;;6304725;22;20042;-87
2023/07/15 01:35:48;;;;;;;7.15;3.38;;;19.40;99.90;;;;;;6237453;23;20012;-87
2023/07/15 01:38:15;;;;;;;4.78;2.90;;;19.50;99.90;;;;;;6237201;23;20023;-86
2023/07/15 01:40:41;;;;;;;6.28;3.13;;;19.40;99.90;;;;;;6239550;23;20341;-87
2023/07/15 01:43:07;;;;;;;8.00;3.22;;;19.50;99.90;;;;;;6239827;23;20015;-87
2023/07/15 01:45:32;;;;;;;6.25;2.80;;;19.50;99.90;;;;;;6240007;23;20008;-87
2023/07/15 01:47:58;;;;;;;8.52;2.65;;;19.50;99.90;;;;;;6239479;23;20016;-87
2023/07/15 01:50:24;;;;;;;6.95;3.28;;;19.50;99.90;;;;;;6240734;23;20012;-86
2023/07/15 01:52:50;;;;;;;10.23;2.78;;;19.50;99.90;;;;;;6213121;23;20016;-87
2023/07/15 01:55:15;;;;;;;8.30;3.45;;;19.60;99.90;;;;;;6240177;23;20055;-86
2023/07/15 01:57:41;;;;;;;7.57;2.88;;;19.60;99.90;;;;;;6189929;23;20016;-85
2023/07/15 02:00:10;;;;;;;6.53;2.30;;;19.60;99.90;;;;;;6239621;23;20336;-86
2023/07/15 02:02:36;;;;;;;5.97;2.58;;;19.60;99.90;;;;;;6240674;23;20091;-86
2023/07/15 02:05:02;;;;;;;7.32;2.72;;;19.70;99.90;;;;;;6240740;23;20047;-85
2023/07/15 02:07:28;;;;;;;6.65;2.67;;;19.70;99.90;;;;;;6295659;22;20069;-85
2023/07/15 02:09:54;;;;;;;6.93;2.70;;;19.70;99.90;;;;;;6307265;22;20042;-85
2023/07/15 02:12:20;;;;;;;6.20;2.33;;;19.80;99.90;;;;;;6308713;22;20010;-86
2023/07/15 02:14:46;;;;;;;5.22;2.28;;;19.80;99.90;;;;;;6309494;22;20040;-86
2023/07/15 02:17:12;;;;;;;5.22;2.53;;;19.80;99.90;;;;;;6308747;22;20464;-85
2023/07/15 02:19:37;;;;;;;8.15;2.75;;;19.80;99.90;;;;;;6283659;22;20015;-86
2023/07/15 02:22:04;;;;;;;5.75;2.45;;;19.90;99.90;;;;;;6310025;22;20017;-85
2023/07/15 02:24:29;;;;;;;8.68;2.58;;;19.90;99.90;;;;;;6309840;22;20050;-86
2023/07/15 02:26:55;;;;;;;4.25;2.13;;;20.00;99.90;;;;;;6335740;22;20121;-86
2023/07/15 02:29:21;;;;;;;5.82;2.72;;;20.00;99.90;;;;;;6308710;22;20364;-86
2023/07/15 02:31:46;;;;;;;4.35;2.38;;;20.00;99.90;;;;;;6283772;22;20015;-85
2023/07/15 02:34:13;;;;;;;6.13;2.40;;;20.10;99.90;;;;;;6309214;22;20424;-85
2023/07/15 02:36:38;;;;;;;5.60;2.47;;;20.10;99.90;;;;;;6308801;22;20021;-86
2023/07/15 02:39:04;;;;;;;5.68;2.63;;;20.10;99.90;;;;;;6337153;22;20007;-86
2023/07/15 02:41:34;;;;;;;8.18;2.65;;;20.10;99.90;;;;;;6309439;22;20015;-85
2023/07/15 02:43:59;;;;;;;10.70;2.85;;;20.10;99.90;;;;;;6282663;22;20382;-85
2023/07/15 02:46:25;;;;;;;7.53;2.20;;;20.10;99.90;;;;;;6308685;22;20037;-86
2023/07/15 02:48:51;;;;;;;6.22;2.35;;;20.10;99.90;;;;;;6337052;22;20018;-85
2023/07/15 02:51:17;;;;;;;5.95;2.42;;;20.10;99.90;;;;;;6336596;22;20486;-86
2023/07/15 02:53:47;;;;;;;5.53;2.20;;;20.10;99.90;;;;;;6336886;22;20048;-85
2023/07/15 02:56:13;;;;;;;4.93;2.40;;;20.10;99.90;;;;;;6309056;22;20136;-86
2023/07/15 02:58:41;;;;;;;7.53;2.38;;;20.10;99.90;;;;;;6308119;22;20411;-85
2023/07/15 03:01:09;;;;;;;6.25;2.60;;;20.10;99.90;;;;;;6282316;22;20006;-86
2023/07/15 03:03:36;;;;;;;8.82;2.42;;;20.10;99.90;;;;;;6337069;22;20296;-86
2023/07/15 03:06:01;;;;;;;5.57;2.17;;;20.10;99.90;;;;;;6334661;22;20015;-86
2023/07/15 03:08:27;;;;;;;6.53;2.50;;;20.10;99.90;;;;;;6282164;22;20446;-85
2023/07/15 03:10:53;;;;;;;6.03;2.35;;;20.00;99.90;;;;;;6281853;22;20015;-85
2023/07/15 03:13:18;;;;;;;7.55;2.60;;;20.00;99.90;;;;;;6308325;22;20014;-85
2023/07/15 03:15:44;;;;;;;6.55;2.38;;;20.00;99.90;;;;;;6283536;22;20014;-86
2023/07/15 03:18:10;;;;;;;6.32;2.53;;;19.90;99.90;;;;;;6307905;22;20015;-85
2023/07/15 03:20:36;;;;;;;6.70;2.42;;;19.90;99.90;;;;;;6337360;22;20090;-86
2023/07/15 03:23:02;;;;;;;6.80;2.38;;;19.80;99.90;;;;;;6308711;22;20014;-85
2023/07/15 03:25:27;;;;;;;5.80;2.45;;;19.80;99.90;;;;;;6308925;22;20011;-86
2023/07/15 03:27:53;;;;;;;7.30;2.97;;;19.80;99.90;;;;;;6283116;22;20015;-85
2023/07/15 03:30:19;;;;;;;4.35;2.55;;;19.70;99.90;;;;;;6309292;22;20011;-85
2023/07/15 03:32:46;;;;;;;4.70;2.30;;;19.70;99.90;;;;;;6284071;22;20022;-85
2023/07/15 03:35:12;;;;;;;5.47;2.53;;;19.70;99.90;;;;;;6336419;22;20003;-85
2023/07/15 03:37:40;;;;;;;7.28;2.60;;;19.70;99.90;;;;;;6307999;22;20011;-86
2023/07/15 03:40:07;;;;;;;9.43;2.90;;;19.60;99.90;;;;;;6307089;22;20081;-86
2023/07/15 03:42:40;;;;;;;7.13;2.22;;;19.60;99.90;;;;;;6335194;22;20086;-86
2023/07/15 03:45:06;;;;;;;6.63;2.63;;;19.50;99.90;;;;;;6305457;22;20025;-85
2023/07/15 03:47:35;;;;;;;8.02;2.75;;;19.50;99.90;;;;;;6307408;22;20064;-85
2023/07/15 03:50:02;;;;;;;5.82;2.78;;;19.50;99.90;;;;;;6307424;22;20023;-85
2023/07/15 03:52:28;;;;;;;4.88;2.40;;;19.50;99.90;;;;;;6309271;22;20410;-86
2023/07/15 03:54:54;;;;;;;5.15;2.70;;;19.40;99.90;;;;;;6309286;22;20027;-85
2023/07/15 03:57:20;;;;;;;5.68;2.47;;;19.40;99.90;;;;;;6309031;22;20007;-85
2023/07/15 03:59:45;;;;;;;7.47;2.53;;;19.30;99.90;;;;;;6309199;22;20018;-85
2023/07/15 04:02:11;;;;;;;8.93;2.55;;;19.30;99.90;;;;;;6308977;22;20014;-86
2023/07/15 04:04:37;;;;;;;5.15;2.30;;;19.30;99.90;;;;;;6310820;22;20017;-85
2023/07/15 04:07:02;;;;;;;6.53;2.80;;;19.20;99.90;;;;;;6338219;22;20022;-86
2023/07/15 04:09:28;;;;;;;5.07;2.58;;;19.20;99.90;;;;;;6311970;22;20018;-86
2023/07/15 04:11:55;;;;;;;4.28;2.15;;;19.20;99.90;;;;;;6310680;22;20311;-86
2023/07/15 04:14:21;;;;;;;7.55;2.70;;;19.20;99.90;;;;;;6338476;22;20437;-85
2023/07/15 04:16:47;;;;;;;5.90;2.80;;;19.10;99.90;;;;;;6338274;22;20011;-85
2023/07/15 04:19:13;;;;;;;5.90;2.60;;;19.20;99.90;;;;;;6310280;22;20022;-85
2023/07/15 04:21:39;;;;;;;5.35;2.42;;;19.10;99.90;;;;;;6311390;22;20117;-85
2023/07/15 04:24:05;;;;;;;4.75;2.35;;;19.10;99.90;;;;;;6311813;22;20018;-86
2023/07/15 04:26:31;;;;;;;5.82;2.85;;;19.10;99.90;;;;;;6338575;22;20015;-85
2023/07/15 04:28:58;;;;;;;7.03;2.80;;;19.00;99.90;;;;;;6338233;22;20078;-85
2023/07/15 04:31:24;;;;;;;4.88;2.50;;;19.10;99.90;;;;;;6309903;22;20018;-86
2023/07/15 04:33:50;;;;;;;4.85;2.75;;;19.00;99.90;;;;;;6338608;22;20101;-85
2023/07/15 04:36:19;;;;;;;4.95;2.58;;;19.10;99.90;;;;;;6313613;22;20015;-85
2023/07/15 04:38:45;;;;;;;6.57;2.25;;;19.00;99.90;;;;;;6315145;22;20019;-85
2023/07/15 04:41:11;;;;;;;5.40;2.22;;;19.00;99.90;;;;;;6341064;22;20019;-85
2023/07/15 04:43:37;;;;;;;6.30;2.45;;;19.00;99.90;;;;;;6341846;22;20014;-85
2023/07/15 04:46:04;;;;;;;8.27;2.70;;;19.00;99.90;;;;;;6314607;22;20426;-84
2023/07/15 04:48:30;;;;;;;5.70;2.65;;;19.00;99.90;;;;;;6288053;22;20007;-84
2023/07/15 04:50:56;;;;;;;5.45;2.53;;;19.00;99.90;;;;;;6342112;22;20007;-85
2023/07/15 04:53:21;;;;;;;7.50;2.40;;;19.00;99.90;;;;;;6312428;22;20390;-85
2023/07/15 04:55:48;;;;;;;6.85;2.40;;;19.00;99.90;;;;;;6314499;22;20113;-85
2023/07/15 04:58:20;;;;;;;4.85;2.50;;;19.00;99.90;;;;;;6338425;22;20041;-85
2023/07/15 05:00:48;;;;;;;5.95;2.35;;;19.10;99.90;;;;;;6340884;22;20063;-85
2023/07/15 05:03:14;;;;;;;5.75;2.63;;;19.10;99.90;;;;;;6310635;22;20430;-85
2023/07/15 05:05:40;;;;;;;6.65;2.63;;;19.10;99.90;;;;;;6286031;22;20011;-85
2023/07/15 05:08:22;;;;;;;5.70;2.45;;;19.10;99.90;;;;;;6309643;22;20468;-85
2023/07/15 05:10:54;;;;;;;5.57;2.72;;;19.10;99.90;;;;;;6306985;22;20011;-85
2023/07/15 05:13:20;;;;;;;4.82;2.38;;;19.10;99.90;;;;;;6309425;22;20398;-87
2023/07/15 05:15:45;;;;;;;6.68;2.50;;;19.10;99.90;;;;;;6309706;22;20075;-85
2023/07/15 05:18:11;;;;;;;5.35;2.55;;;19.10;99.90;;;;;;6337058;22;20433;-86
2023/07/15 05:20:38;;;;;;;4.65;2.55;;;19.10;99.90;;;;;;6336765;22;20030;-86
2023/07/15 05:23:07;;;;;;;5.32;2.60;;;19.10;99.90;;;;;;6308920;22;20027;-86
2023/07/15 05:25:33;;;;;;;4.55;2.47;;;19.10;99.90;;;;;;6309173;22;20015;-86
2023/07/15 05:27:59;;;;;;;8.63;2.63;;;19.20;99.90;;;;;;6308547;22;20145;-86
2023/07/15 05:30:25;;;;;;;5.97;2.30;;;19.20;99.90;;;;;;6307878;22;20015;-86
2023/07/15 05:32:51;;;;;;;6.00;2.47;;;19.20;99.90;;;;;;6306971;22;20019;-86
2023/07/15 05:35:17;;;;;;;9.77;2.63;;;19.30;99.90;;;;;;6337156;22;20014;-86
2023/07/15 05:37:43;;;;;;;5.95;2.60;;;19.30;99.90;;;;;;6336642;22;20453;-86
2023/07/15 05:40:10;;;;;;;5.38;2.47;;;19.30;99.90;;;;;;6307372;22;20018;-87
2023/07/15 05:42:40;;;;;;;7.47;2.70;;;19.40;99.90;;;;;;6308070;22;20021;-85
2023/07/15 05:45:07;;;;;;;7.40;2.50;;;19.40;99.90;;;;;;6310720;22;20515;-86
2023/07/15 05:47:34;;;;;;;5.82;2.80;;;19.50;99.90;;;;;;6310311;22;20011;-86
2023/07/15 05:50:01;;;;;;;8.40;2.67;;;19.50;99.90;;;;;;6310135;22;20022;-86
2023/07/15 05:52:27;;;;;;;6.82;2.30;;;19.50;99.90;;;;;;6335293;22;20021;-86
2023/07/15 05:54:53;;;;;;;7.32;2.63;;;19.60;99.90;;;;;;6308927;22;20072;-85
2023/07/15 05:57:21;;;;;;;8.13;2.60;;;19.70;99.90;;;;;;6337806;22;20422;-85
2023/07/15 05:59:46;;;;;;;6.25;2.35;;;19.70;99.90;;;;;;6309821;22;20023;-85
2023/07/15 06:02:12;;;;;;;7.47;2.30;;;19.80;99.90;;;;;;6307570;22;20064;-86
2023/07/15 06:04:40;;;;;;;5.50;2.90;;;19.80;99.90;;;;;;6307835;22;20453;-85
2023/07/15 06:07:09;;;;;;;5.90;2.90;;;19.80;99.90;;;;;;6308143;22;20093;-86
2023/07/15 06:09:35;;;;;;;6.00;2.40;;;19.90;99.90;;;;;;6309913;22;20019;-85
2023/07/15 06:12:00;;;;;;;7.13;2.58;;;20.00;99.90;;;;;;6334866;22;20021;-84
2023/07/15 06:14:26;;;;;;;6.20;2.45;;;20.00;99.90;;;;;;6335279;22;20060;-85
2023/07/15 06:16:52;;;;;;;5.28;2.30;;;20.00;99.90;;;;;;6336681;22;20079;-86
2023/07/15 06:19:18;;;;;;;6.93;2.80;;;20.10;99.90;;;;;;6336304;22;20077;-85
2023/07/15 06:21:44;;;;;;;5.68;2.33;;;20.20;99.90;;;;;;6307817;22;20366;-85
2023/07/15 06:24:09;;;;;;;5.78;2.22;;;20.30;99.90;;;;;;6335238;22;20007;-84
2023/07/15 06:26:35;;;;;;;8.25;2.70;;;20.40;99.90;;;;;;6307518;22;20010;-84
2023/07/15 06:31:39;;;;;;;6.55;2.40;;;20.60;99.90;;;;;;6335274;22;20018;-84
2023/07/15 06:34:05;;;;;;;9.60;2.88;;;20.80;99.90;;;;;;6334441;22;20013;-84
2023/07/15 06:36:30;;;;;;;4.97;2.20;;;20.90;99.90;;;;;;6307261;22;20017;-86
2023/07/15 06:38:56;;;;;;;5.40;2.13;;;21.00;99.90;;;;;;6307067;22;20531;-85
2023/07/15 06:41:22;;;;;;;8.45;2.60;;;21.10;99.90;;;;;;6307551;22;20015;-87
2023/07/15 06:43:48;;;;;;;5.80;2.05;;;21.10;99.90;;;;;;6308373;22;20464;-83
2023/07/15 06:46:14;;;;;;;8.15;2.50;;;21.20;99.90;;;;;;6306942;22;20014;-83
2023/07/15 06:48:40;;;;;;;10.45;2.10;;;21.20;99.90;;;;;;6306997;22;20014;-83
2023/07/15 06:51:10;;;;;;;8.80;2.47;;;21.20;99.90;;;;;;6281059;22;20094;-83
2023/07/15 06:53:36;;;;;;;6.32;2.30;;;21.30;99.90;;;;;;6334530;22;20076;-83
2023/07/15 06:56:01;;;;;;;7.15;2.50;;;21.40;99.90;;;;;;6334895;22;20011;-83
2023/07/15 06:58:28;;;;;;;6.38;2.20;;;21.40;99.90;;;;;;6335521;22;20022;-83
2023/07/15 07:00:54;;;;;;;6.40;2.33;;;21.50;99.90;;;;;;6334743;22;20741;-83
2023/07/15 07:03:20;;;;;;;6.40;2.13;;;21.50;99.90;;;;;;6306585;22;20010;-83
2023/07/15 07:05:45;;;;;;;6.68;2.20;;;21.60;99.90;;;;;;6333803;22;20023;-83
2023/07/15 07:08:11;;;;;;;9.57;2.17;;;21.70;99.90;;;;;;6306237;22;20018;-83
2023/07/15 07:10:40;;;;;;;8.68;2.50;;;21.70;99.90;;;;;;6307373;22;20115;-83
2023/07/15 07:13:05;;;;;;;8.60;2.08;;;21.90;99.90;;;;;;6334001;22;20015;-83
2023/07/15 07:15:31;;;;;;;6.07;2.38;;;21.90;99.90;;;;;;6306519;22;20011;-84
2023/07/15 07:17:57;;;;;;;5.43;2.38;;;22.00;99.90;;;;;;6306460;22;20053;-84
2023/07/15 07:20:23;;;;;;;5.07;2.30;;;22.10;99.90;;;;;;6331938;22;20608;-85
2023/07/15 07:22:48;;;;;;;5.35;2.00;;;22.20;99.90;;;;;;6306308;22;20410;-89
2023/07/15 07:25:14;;;;;;;4.97;2.45;;;22.40;99.90;;;;;;6333891;22;20311;-85
2023/07/15 07:27:40;;;;;;;5.68;2.28;;;22.60;99.90;;;;;;6333507;22;20457;-85
2023/07/15 07:30:06;;;;;;;5.25;2.50;;;22.70;99.90;;;;;;6333149;22;20014;-86
2023/07/15 07:32:32;;;;;;;6.80;1.83;;;23.00;99.90;;;;;;6305986;22;20025;-86
2023/07/15 07:34:58;;;;;;;5.13;1.90;;;23.20;99.90;;;;;;6304106;22;20101;-86
2023/07/15 07:37:24;;;;;;;6.55;2.05;;;23.40;99.90;;;;;;6304529;22;20438;-84
2023/07/15 07:39:49;;;;;;;6.18;1.92;;;23.50;99.90;;;;;;6303915;22;20024;-86
2023/07/15 07:42:15;;;;;;;4.97;2.10;;;23.70;99.90;;;;;;6332643;22;20126;-86
2023/07/15 07:44:41;;;;;;;4.60;2.20;;;23.90;99.90;;;;;;6333127;22;20368;-85
2023/07/15 07:47:06;;;;;;;4.03;1.80;;;23.90;99.90;;;;;;6305605;22;20044;-86
2023/07/15 07:49:32;;;;;;;4.60;1.75;;;24.00;99.90;;;;;;6303996;22;20018;-85
2023/07/15 07:51:58;;;;;;;5.45;1.90;;;24.10;99.90;;;;;;6337561;22;20017;-91
2023/07/15 07:54:23;;;;;;;6.13;1.85;;;24.20;99.90;;;;;;6337271;22;20026;-85
2023/07/15 07:56:49;;;;;;;6.85;2.22;;;24.30;99.90;;;;;;6333726;22;20050;-85
2023/07/15 07:59:15;;;;;;;4.72;1.77;;;24.40;99.90;;;;;;6306023;22;20458;-85
2023/07/15 08:01:40;;;;;;;6.70;1.70;;;24.60;99.90;;;;;;6334441;22;20060;-85
2023/07/15 08:04:06;;;;;;;5.85;2.08;;;24.70;99.90;;;;;;6279250;22;20407;-85
2023/07/15 08:06:32;;;;;;;4.00;1.80;;;24.80;99.90;;;;;;6305808;22;20014;-86
2023/07/15 08:08:58;;;;;;;4.35;2.00;;;24.90;99.90;;;;;;6307775;22;20051;-86
2023/07/15 08:11:23;;;;;;;3.47;2.03;;;24.90;99.90;;;;;;6279971;22;20011;-85
2023/07/15 08:13:49;;;;;;;6.63;2.08;;;25.00;99.90;;;;;;6334580;22;20015;-86
2023/07/15 08:16:30;;;;;;;5.63;2.05;;;24.80;99.90;;;;;;6334072;22;20010;-85
2023/07/15 08:18:56;;;;;;;3.95;1.58;;;24.70;99.90;;;;;;6305329;22;20019;-85
2023/07/15 08:21:22;;;;;;;3.65;1.60;;;24.60;99.90;;;;;;6307018;22;20011;-85
2023/07/15 08:23:47;;;;;;;3.83;1.42;;;24.50;99.90;;;;;;6305534;22;20433;-84
2023/07/15 08:26:13;;;;;;;4.00;1.52;;;24.40;99.90;;;;;;6306038;22;20319;-84
2023/07/15 08:28:39;;;;;;;4.35;1.30;;;24.40;99.90;;;;;;6333653;22;20053;-85
2023/07/15 08:31:04;;;;;;;4.82;1.35;;;24.40;99.90;;;;;;6304484;22;20018;-84
2023/07/15 08:33:30;;;;;;;17.50;3.00;;;24.30;99.90;;;;;;6302705;22;20040;-84
2023/07/15 08:35:56;;;;;;;2.83;1.40;;;24.30;99.90;;;;;;6303544;22;20025;-83
2023/07/15 08:38:22;;;;;;;4.10;1.63;;;24.30;99.90;;;;;;6332303;22;20015;-83
2023/07/15 08:40:50;;;;;;;7.05;1.92;;;24.40;99.90;;;;;;6306405;22;20077;-84
2023/07/15 08:43:17;;;;;;;6.35;1.90;;;24.50;99.90;;;;;;6334320;22;20014;-84
2023/07/15 08:45:44;;;;;;;6.82;1.55;;;24.60;99.90;;;;;;6305542;22;20018;-81
2023/07/15 08:48:10;;;;;;;5.80;1.70;;;24.60;99.90;;;;;;6331956;22;20038;-79
2023/07/15 08:50:36;;;;;;;4.57;1.55;;;24.60;99.90;;;;;;6332597;22;20037;-82
2023/07/15 08:53:02;;;;;;;4.25;1.60;;;24.60;99.90;;;;;;6304256;22;20015;-81
2023/07/15 08:55:31;;;;;;;3.50;1.40;;;24.60;99.90;;;;;;6332148;22;20068;-82
2023/07/15 08:57:59;;;;;;;4.55;1.65;;;24.60;99.90;;;;;;6334377;22;20075;-82
2023/07/15 09:00:25;;;;;;;5.97;2.10;;;24.70;99.90;;;;;;6307247;22;20204;-81
2023/07/15 09:02:53;;;;;;;3.72;1.98;;;24.70;99.90;;;;;;6331340;22;20505;-81
2023/07/15 09:05:20;;;;;;;4.85;1.90;;;24.70;99.90;;;;;;6334056;22;20014;-81
2023/07/15 09:07:50;;;;;;;4.95;1.77;;;24.80;99.90;;;;;;6281241;22;20045;-85
2023/07/15 09:10:15;;;;;;;6.93;2.20;;;24.90;99.90;;;;;;6306077;22;20118;-82
2023/07/15 09:12:54;;;;;;;4.70;2.00;;;24.80;99.90;;;;;;6280571;22;20053;-82
2023/07/15 09:15:23;;;;;;;4.55;1.90;;;24.80;99.90;;;;;;6334109;22;20022;-81
2023/07/15 09:17:57;;;;;;;4.10;1.98;;;24.80;99.90;;;;;;6280065;22;20015;-81
2023/07/15 09:20:25;;;;;;;5.45;2.00;;;24.90;99.90;;;;;;6306688;22;20505;-82
2023/07/15 09:22:55;;;;;;;4.40;2.00;;;25.00;99.90;;;;;;6334309;22;20015;-82
2023/07/15 09:25:23;;;;;;;4.47;2.22;;;25.10;99.90;;;;;;6306502;22;20062;-81
2023/07/15 09:27:50;;;;;;;3.97;1.60;;;25.10;99.90;;;;;;6333050;22;20404;-82
2023/07/15 09:30:16;;;;;;;4.68;1.80;;;25.10;99.90;;;;;;6279472;22;20388;-82
2023/07/15 09:32:45;;;;;;;4.30;2.00;;;25.20;99.90;;;;;;6306357;22;20021;-81
2023/07/15 09:35:11;;;;;;;6.10;2.53;;;25.30;99.90;;;;;;6333808;22;20421;-82
2023/07/15 09:37:37;;;;;;;5.07;2.35;;;25.50;99.90;;;;;;6279921;22;20018;-82
2023/07/15 09:40:08;;;;;;;4.07;2.30;;;25.60;99.90;;;;;;6280007;22;20136;-82
2023/07/15 09:42:51;;;;;;;5.40;1.90;;;25.60;99.90;;;;;;6332784;22;20007;-81
2023/07/15 09:45:36;;;;;;;4.28;1.80;;;25.70;99.90;;;;;;6333122;22;20433;-83
2023/07/15 09:48:14;;;;;;;6.53;1.83;;;25.70;99.90;;;;;;6333747;22;20015;-84
2023/07/15 09:50:41;;;;;;;3.55;1.63;;;25.80;99.90;;;;;;6279850;22;20021;-82
2023/07/15 09:53:08;;;;;;;3.20;1.90;;;26.10;99.90;;;;;;6332231;22;20007;-84
2023/07/15 09:55:36;;;;;;;3.88;1.95;;;26.30;99.90;;;;;;6305689;22;20084;-84
2023/07/15 09:58:24;;;;;;;3.67;1.77;;;26.40;99.90;;;;;;6279142;22;20023;-84
2023/07/15 10:01:02;;;;;;;5.82;1.92;;;26.30;99.90;;;;;;6305118;22;20026;-84
2023/07/15 10:03:55;;;;;;;7.43;2.50;;;26.30;99.90;;;;;;6305806;22;20018;-85
2023/07/15 10:06:21;;;;;;;6.78;2.25;;;26.40;99.90;;;;;;6304710;22;20050;-84
2023/07/15 10:08:47;;;;;;;3.53;1.75;;;26.50;99.90;;;;;;6278356;22;20050;-84
2023/07/15 10:11:14;;;;;;;6.10;1.90;;;26.60;99.90;;;;;;6305326;22;20015;-84
2023/07/15 10:13:41;;;;;;;4.43;1.67;;;26.80;99.90;;;;;;6304654;22;20059;-83
2023/07/15 10:16:07;;;;;;;5.50;1.73;;;26.90;99.90;;;;;;6305757;22;20018;-83
2023/07/15 10:18:32;;;;;;;3.25;1.50;;;27.00;99.90;;;;;;6280302;22;20046;-83
2023/07/15 10:21:14;;;;;;;3.47;1.50;;;27.00;99.90;;;;;;6305082;22;20502;-82
2023/07/15 10:23:39;;;;;;;4.82;1.80;;;26.80;99.90;;;;;;6328488;22;20019;-86
2023/07/15 10:26:07;;;;;;;5.03;1.90;;;26.60;99.90;;;;;;6334120;22;20407;-87
2023/07/15 10:28:38;;;;;;;3.47;1.50;;;26.50;99.90;;;;;;6280615;22;20011;-87
2023/07/15 10:31:14;;;;;;;5.25;1.50;;;26.50;99.90;;;;;;6334505;22;20015;-86
2023/07/15 10:33:54;;;;;;;5.47;1.80;;;26.40;99.90;;;;;;6334683;22;20037;-86
2023/07/15 10:36:44;;;;;;;3.40;1.60;;;26.50;99.90;;;;;;6334370;22;20445;-86
2023/07/15 10:39:17;;;;;;;6.13;1.85;;;26.40;99.90;;;;;;6280246;22;20018;-86
2023/07/15 10:41:48;;;;;;;3.05;1.30;;;26.40;99.90;;;;;;6308230;22;20011;-90
2023/07/15 10:44:25;;;;;;;4.60;1.65;;;26.40;99.90;;;;;;6309066;22;20472;-91
2023/07/15 10:47:02;;;;;;;4.30;1.70;;;26.50;99.90;;;;;;6309173;22;20015;-89
2023/07/15 10:49:30;;;;;;;6.55;1.45;;;26.50;99.90;;;;;;6308274;22;20010;-90
2023/07/15 10:51:57;;;;;;;3.15;1.27;;;26.50;99.90;;;;;;6307566;22;20021;-90
2023/07/15 10:54:35;;;;;;;3.78;1.40;;;26.30;99.90;;;;;;6281786;22;20011;-89
2023/07/15 10:57:11;;;;;;;4.10;1.60;;;26.40;99.90;;;;;;6280561;22;20011;-89
2023/07/15 10:59:39;;;;;;;5.50;1.10;;;26.50;99.90;;;;;;6307822;22;20734;-91
2023/07/15 11:02:06;;;;;;;2.55;1.23;;;26.60;99.90;;;;;;6282438;22;20012;-85
2023/07/15 11:04:32;;;;;;;2.90;1.25;;;26.70;99.90;;;;;;6307595;22;20461;-84
2023/07/15 11:07:01;;;;;;;3.17;1.20;;;26.70;99.90;;;;;;6334148;22;20015;-87
2023/07/15 11:09:27;;;;;;;3.25;1.20;;;26.80;99.90;;;;;;6306005;22;20453;-87
2023/07/15 11:11:53;;;;;;;5.47;1.10;;;26.80;99.90;;;;;;6306322;22;20006;-87
2023/07/15 11:14:27;;;;;;;6.35;1.10;;;26.80;99.90;;;;;;6306781;22;20017;-88
2023/07/15 11:16:58;;;;;;;4.85;1.30;;;26.80;99.90;;;;;;6307552;22;20019;-90
2023/07/15 11:19:28;;;;;;;2.70;1.08;;;26.80;99.90;;;;;;6308209;22;20021;-90
2023/07/15 11:21:56;;;;;;;2.92;1.05;;;26.80;99.90;;;;;;6310443;22;20018;-91
2023/07/15 11:24:26;;;;;;;5.63;1.08;;;26.90;99.90;;;;;;6340535;22;20006;-90
2023/07/15 11:26:53;;;;;;;5.47;1.20;;;26.90;99.30;;;;;;6338684;22;20022;-91
2023/07/15 11:29:21;;;;;;;4.22;1.10;;;26.80;99.80;;;;;;6311162;22;20021;-91
2023/07/15 11:31:54;;;;;;;2.38;0.85;;;26.70;99.90;;;;;;6333227;22;20018;-86
2023/07/15 11:34:23;;;;;;;3.83;0.80;;;26.60;99.60;;;;;;6333109;22;20310;-84
2023/07/15 11:36:50;;;;;;;3.22;1.02;;;26.60;99.90;;;;;;6306373;22;20021;-87
2023/07/15 11:39:17;;;;;;;3.85;1.00;;;26.50;99.90;;;;;;6307369;22;20018;-86
2023/07/15 11:41:43;;;;;;;3.60;1.00;;;26.50;99.90;;;;;;6335015;22;20011;-87
2023/07/15 11:44:11;;;;;;;8.45;1.58;;;26.40;99.90;;;;;;6335505;22;20015;-86
2023/07/15 11:46:38;;;;;;;2.60;1.15;;;26.30;99.90;;;;;;6307613;22;20011;-87
2023/07/15 11:49:05;;;;;;;2.63;1.20;;;26.20;99.90;;;;;;6308293;22;20045;-87
2023/07/15 11:51:32;;;;;;;2.28;1.27;;;26.20;99.90;;;;;;6281659;22;20015;-87
2023/07/15 11:53:58;;;;;;;2.85;1.23;;;26.20;99.90;;;;;;6307974;22;20049;-88
2023/07/15 11:56:35;;;;;;;4.22;1.50;;;26.20;99.90;;;;;;6336463;22;20018;-89
2023/07/15 11:59:01;;;;;;;3.25;1.20;;;26.20;99.90;;;;;;6280780;22;20390;-84
2023/07/15 12:01:27;;;;;;;3.00;0.98;;;26.30;99.90;;;;;;6278888;22;20311;-84
2023/07/15 12:03:53;;;;;;;3.42;1.30;;;26.30;99.90;;;;;;6303754;22;20022;-84
2023/07/15 12:06:24;;;;;;;7.93;1.30;;;26.30;99.90;;;;;;6305243;22;20100;-82
2023/07/15 12:08:59;;;;;;;4.00;1.30;;;26.40;99.90;;;;;;6332719;22;20019;-79
2023/07/15 12:11:25;;;;;;;3.25;1.30;;;26.40;99.90;;;;;;6303610;22;20018;-78
2023/07/15 12:13:50;;;;;;;7.15;1.27;;;26.60;99.90;;;;;;6306526;22;20071;-78
2023/07/15 12:16:17;;;;;;;5.05;1.38;;;26.70;99.90;;;;;;6333513;22;20019;-79
2023/07/15 12:18:43;;;;;;;3.75;1.33;;;26.80;99.90;;;;;;6305403;22;20054;-81
2023/07/15 12:21:09;;;;;;;7.63;1.30;;;27.00;99.90;;;;;;6332214;22;20156;-81
2023/07/15 12:23:34;;;;;;;8.00;1.92;;;27.10;99.90;;;;;;6307164;22;20018;-81
2023/07/15 12:26:00;;;;;;;3.55;1.42;;;27.10;99.90;;;;;;6333781;22;20010;-81
2023/07/15 12:28:26;;;;;;;6.40;1.70;;;27.10;99.60;;;;;;6335141;22;20014;-81
2023/07/15 12:30:51;;;;;;;10.07;1.58;;;27.10;99.90;;;;;;6334732;22;20041;-82
2023/07/15 12:33:17;;;;;;;3.85;1.40;;;27.20;99.90;;;;;;6306148;22;20041;-83
2023/07/15 12:35:43;;;;;;;6.15;1.50;;;27.30;99.90;;;;;;6305127;22;20019;-83
2023/07/15 12:38:09;;;;;;;9.40;1.70;;;27.40;99.90;;;;;;6334704;22;20011;-82
2023/07/15 12:40:34;;;;;;;4.25;1.33;;;27.60;99.60;;;;;;6306503;22;20011;-81
2023/07/15 12:43:00;;;;;;;4.05;1.15;;;27.60;99.40;;;;;;6306657;22;20338;-83
2023/07/15 12:45:26;;;;;;;4.22;1.27;;;27.60;99.50;;;;;;6307241;22;20015;-82
2023/07/15 12:47:51;;;;;;;4.03;1.40;;;27.50;99.30;;;;;;6306957;22;20018;-82
2023/07/15 12:50:17;;;;;;;5.32;1.40;;;27.40;99.50;;;;;;6306670;22;20086;-82
2023/07/15 12:52:43;;;;;;;2.92;1.10;;;27.50;99.80;;;;;;6333431;22;20056;-85